Stewarts Point, CA (95480)

7:08 PM PDT on July 29, 2016 (GMT -0700)
Stillwater Cove | | Change Station

Elev 105 ft 38.55 °N, 123.30 °W | Updated 2 minutes ago

Partly Cloudy
Partly Cloudy
54.0 °F
Feels Like 54.0 °F
N
0.9
Wind Variable Wind from SSE
Gusts 2.0 mph

Today
High -- | Low -- °F
--% Chance of Precip.
Yesterday
High -- | Low -- °F
Precip. -- in
Pressure 29.73 in
Visibility 10.0 miles
Clouds Few 1500 ft
Dew Point 52 °F
Humidity 92%
Rainfall in
Snow Depth Not available.
6:13 AM 8:26 PM
Waning Crescent, 17% visible
METAR KSTS 300153Z 14011KT 10SM FEW015 23/12 A2975 RMK AO2 SLP068 T02330117
Pressure 29.73 in
Visibility 10.0 miles
Clouds Few 1500 ft
Dew Point 52 °F
Humidity 92%
Rainfall in
Snow Depth Not available.
6:13 AM 8:26 PM
Waning Crescent, 17% visible
METAR KSTS 300153Z 14011KT 10SM FEW015 23/12 A2975 RMK AO2 SLP068 T02330117

10-Day Weather Forecast

Almanac

Astronomy

Jul. 29, 2016 Rise Set
Actual Time
Civil Twilight
Nautical Twilight
Astronomical Twilight
Moon
Length of Visible Light
Length of Day
Tomorrow will be .
, % of the Moon is Illuminated

Today's Extremes

State Highs State Lows

Community

WunderPhotos

Upload Photos

1,928,481 photos uploaded!

WunderBlog® & News

Nearby

Air Quality

  Air Quality AQ Index Pollutant
Not available.

Snow Depth

Station Depth Elevation

Earthquake Activity

City Distance Mag. Time & Date
Minimum magnitude displayed is 2.5.

Coastal Water Temperatures

Place Temperature

Stations

Nearby Weather Stations

Station Location Temp. Windchill Dew Point Humidity Wind Precip. Elev Updated Type
                   

Watches & Warnings

There are currently no watches in effect.